^^
Station Historical Data
 
Daily Summary for April 25, 2015 Units:  English    Metric   Both
« Previous Day
Next Day »
Daily Weekly Monthly Yearly Custom
  Current: High: Low: Average:
Temperature: 42.8 °F 46.6 °F 42.0 °F 44.5 °F
Dew Point: 37.1 °F 44.3 °F 37.1 °F 42 °F
Humidity: 80% 95% 80% 91%
Wind Speed: 3.0mph 7.0mph 1.0mph 3.3mph
Wind Gust: 5.0mph 16.0mph - -
WindNNE - - NE
Pressure: 29.83 in 29.86 in 29.66 in -
Precipitation: 0.55 in      
Historical Graphs
 
 
Tabular Data for April 25, 2015
Time Temperature Dew Point Pressure Wind Wind Speed Wind Gust Humidity Rainfall Rate (Hourly)
00:19 42.2 °F 40.3 °F 29.86 in NE 3.0 mph 7.0 mph 93% 0.04 in
00:29 42.2 °F 40.3 °F 29.85 in NE 2.0 mph 7.0 mph 93% 0.03 in
00:39 42.2 °F 40.3 °F 29.84 in ENE 3.0 mph 10.0 mph 93% 0.01 in
00:49 42.3 °F 40.7 °F 29.84 in ENE 2.0 mph 9.0 mph 94% 0.01 in
00:59 42.3 °F 40.5 °F 29.84 in NE 3.0 mph 8.0 mph 93% 0.01 in
01:09 42.3 °F 40.7 °F 29.84 in NE 2.0 mph 7.0 mph 94% 0.00 in
01:19 42.3 °F 40.7 °F 29.84 in NNE 3.0 mph 8.0 mph 94% 0.00 in
01:29 42.0 °F 40.2 °F 29.83 in NE 3.0 mph 12.0 mph 93% 0.00 in
01:39 42.0 °F 40.1 °F 29.83 in NE 6.0 mph 12.0 mph 93% 0.00 in
01:49 42.1 °F 40.5 °F 29.83 in NE 3.0 mph 12.0 mph 94% 0.00 in
01:59 42.2 °F 40.6 °F 29.81 in NE 3.0 mph 6.0 mph 94% 0.00 in
02:09 42.4 °F 40.8 °F 29.81 in NE 3.0 mph 8.0 mph 94% 0.00 in
02:19 42.6 °F 40.7 °F 29.79 in ENE 3.0 mph 9.0 mph 93% 0.00 in
02:29 42.8 °F 40.9 °F 29.79 in ENE 5.0 mph 9.0 mph 93% 0.00 in
02:39 42.9 °F 40.8 °F 29.79 in ENE 2.0 mph 9.0 mph 92% 0.00 in
02:49 43.1 °F 40.9 °F 29.80 in ENE 2.0 mph 6.0 mph 92% 0.00 in
02:59 43.3 °F 41.1 °F 29.81 in NE 2.0 mph 5.0 mph 92% 0.00 in
03:09 43.6 °F 41.4 °F 29.81 in NE 2.0 mph 8.0 mph 92% 0.00 in
03:19 43.7 °F 41.5 °F 29.81 in NE 1.0 mph 6.0 mph 92% 0.00 in
03:29 43.8 °F 41.6 °F 29.79 in ENE 3.0 mph 8.0 mph 92% 0.00 in
03:39 43.9 °F 41.7 °F 29.77 in ENE 3.0 mph 9.0 mph 92% 0.00 in
03:49 44.0 °F 41.5 °F 29.78 in East 5.0 mph 9.0 mph 91% 0.00 in
03:59 44.1 °F 41.6 °F 29.77 in ENE 3.0 mph 10.0 mph 91% 0.00 in
04:09 44.1 °F 41.6 °F 29.77 in ENE 3.0 mph 8.0 mph 91% 0.00 in
04:19 44.1 °F 41.6 °F 29.76 in ENE 1.0 mph 7.0 mph 91% 0.00 in
04:29 44.0 °F 41.5 °F 29.75 in East 5.0 mph 10.0 mph 91% 0.00 in
04:49 44.2 °F 41.7 °F 29.77 in ENE 3.0 mph 7.0 mph 91% 0.00 in
04:59 44.2 °F 41.7 °F 29.77 in ENE 5.0 mph 8.0 mph 91% 0.00 in
05:10 44.3 °F 41.5 °F 29.77 in ENE 5.0 mph 12.0 mph 90% 0.00 in
05:19 44.2 °F 41.8 °F 29.76 in ENE 3.0 mph 6.0 mph 91% 0.00 in
05:29 44.2 °F 41.7 °F 29.77 in ENE 2.0 mph 8.0 mph 91% 0.01 in
05:39 44.2 °F 41.7 °F 29.76 in NE 2.0 mph 5.0 mph 91% 0.01 in
05:49 44.1 °F 41.6 °F 29.77 in ENE 2.0 mph 5.0 mph 91% 0.00 in
05:59 44.0 °F 41.5 °F 29.76 in ENE 3.0 mph 7.0 mph 91% 0.00 in
06:09 43.9 °F 41.4 °F 29.76 in East 3.0 mph 6.0 mph 91% 0.00 in
06:19 43.9 °F 41.4 °F 29.77 in ENE 2.0 mph 9.0 mph 91% 0.00 in
06:29 44.0 °F 41.5 °F 29.77 in ENE 5.0 mph 8.0 mph 91% 0.00 in
06:39 44.0 °F 41.3 °F 29.78 in ENE 3.0 mph 7.0 mph 90% 0.00 in
06:49 44.1 °F 41.4 °F 29.78 in ENE 2.0 mph 7.0 mph 90% 0.00 in
06:59 44.2 °F 41.5 °F 29.78 in East 1.0 mph 8.0 mph 90% 0.00 in
07:09 44.2 °F 41.5 °F 29.78 in East 1.0 mph 6.0 mph 90% 0.00 in
07:19 44.2 °F 41.5 °F 29.77 in ENE 5.0 mph 9.0 mph 90% 0.01 in
07:29 44.1 °F 41.7 °F 29.77 in East 2.0 mph 10.0 mph 91% 0.01 in
07:39 44.0 °F 41.5 °F 29.76 in ENE 5.0 mph 8.0 mph 91% 0.01 in
07:49 43.9 °F 41.7 °F 29.75 in East 2.0 mph 12.0 mph 92% 0.01 in
07:59 43.8 °F 41.6 °F 29.76 in East 5.0 mph 7.0 mph 92% 0.02 in
08:09 43.7 °F 41.8 °F 29.76 in ENE 3.0 mph 8.0 mph 93% 0.02 in
08:19 43.7 °F 41.8 °F 29.75 in ENE 3.0 mph 9.0 mph 93% 0.02 in
08:29 43.6 °F 41.7 °F 29.75 in East 3.0 mph 8.0 mph 93% 0.02 in
08:39 43.6 °F 42.0 °F 29.74 in ENE 3.0 mph 7.0 mph 94% 0.02 in
08:49 43.7 °F 42.1 °F 29.73 in ENE 3.0 mph 9.0 mph 94% 0.00 in
08:59 43.7 °F 42.1 °F 29.74 in East 2.0 mph 8.0 mph 94% 0.01 in
09:09 43.7 °F 42.1 °F 29.73 in ENE 5.0 mph 10.0 mph 94% 0.00 in
09:19 43.7 °F 42.1 °F 29.72 in ENE 2.0 mph 12.0 mph 94% 0.00 in
09:29 43.8 °F 42.2 °F 29.72 in ENE 3.0 mph 8.0 mph 94% 0.00 in
09:39 43.9 °F 42.2 °F 29.72 in East 2.0 mph 8.0 mph 94% 0.00 in
09:49 44.0 °F 42.4 °F 29.72 in ENE 2.0 mph 6.0 mph 94% 0.01 in
09:59 44.2 °F 42.6 °F 29.73 in ENE 3.0 mph 8.0 mph 94% 0.00 in
10:09 44.2 °F 42.6 °F 29.74 in ENE 5.0 mph 7.0 mph 94% 0.00 in
10:19 44.2 °F 42.6 °F 29.74 in East 2.0 mph 7.0 mph 94% 0.00 in
10:29 44.2 °F 42.6 °F 29.71 in NE 3.0 mph 10.0 mph 94% 0.01 in
10:49 44.3 °F 42.7 °F 29.73 in ENE 2.0 mph 7.0 mph 94% 0.03 in
10:59 44.5 °F 42.9 °F 29.74 in ENE 2.0 mph 8.0 mph 94% 0.01 in
11:09 44.9 °F 43.6 °F 29.73 in ENE 2.0 mph 8.0 mph 95% 0.00 in
11:19 45.4 °F 44.1 °F 29.73 in ENE 2.0 mph 8.0 mph 95% 0.01 in
11:29 45.5 °F 43.9 °F 29.74 in ENE 2.0 mph 7.0 mph 94% 0.00 in
11:39 45.4 °F 43.8 °F 29.76 in East 2.0 mph 6.0 mph 94% 0.00 in
11:49 45.3 °F 43.4 °F 29.77 in ESE 2.0 mph 6.0 mph 93% 0.00 in
11:59 45.2 °F 43.6 °F 29.78 in ESE 1.0 mph 6.0 mph 94% 0.01 in
12:09 45.1 °F 43.2 °F 29.78 in East 2.0 mph 4.0 mph 93% 0.01 in
12:19 45.1 °F 43.5 °F 29.77 in ENE 1.0 mph 5.0 mph 94% 0.01 in
12:29 45.0 °F 43.4 °F 29.76 in ENE 2.0 mph 6.0 mph 94% 0.03 in
12:39 45.2 °F 43.8 °F 29.75 in NE 3.0 mph 8.0 mph 95% 0.02 in
12:49 45.2 °F 43.9 °F 29.75 in NE 1.0 mph 5.0 mph 95% 0.01 in
12:59 45.4 °F 44.1 °F 29.74 in NE 3.0 mph 7.0 mph 95% 0.01 in
13:09 45.4 °F 43.8 °F 29.73 in NE 3.0 mph 15.0 mph 94% 0.02 in
13:19 45.4 °F 43.8 °F 29.72 in NE 6.0 mph 12.0 mph 94% 0.01 in
13:29 45.4 °F 43.8 °F 29.72 in NE 5.0 mph 12.0 mph 94% 0.01 in
13:39 45.5 °F 43.8 °F 29.71 in NE 5.0 mph 12.0 mph 94% 0.01 in
13:49 45.3 °F 43.7 °F 29.71 in NE 3.0 mph 12.0 mph 94% 0.01 in
13:59 45.2 °F 43.6 °F 29.70 in NE 5.0 mph 12.0 mph 94% 0.01 in
14:09 45.2 °F 43.6 °F 29.70 in NE 3.0 mph 8.0 mph 94% 0.01 in
14:19 45.2 °F 43.5 °F 29.69 in NNE 7.0 mph 12.0 mph 94% 0.00 in
14:29 45.1 °F 43.5 °F 29.69 in NE 5.0 mph 12.0 mph 94% 0.01 in
14:39 45.2 °F 43.9 °F 29.68 in ENE 3.0 mph 13.0 mph 95% 0.01 in
14:49 45.2 °F 43.6 °F 29.67 in NE 6.0 mph 14.0 mph 94% 0.01 in
14:59 45.3 °F 43.7 °F 29.66 in NE 5.0 mph 12.0 mph 94% 0.00 in
15:09 45.4 °F 43.8 °F 29.66 in NE 5.0 mph 13.0 mph 94% 0.01 in
15:19 45.5 °F 43.9 °F 29.66 in NE 7.0 mph 12.0 mph 94% 0.00 in
15:29 45.6 °F 44.0 °F 29.67 in NE 6.0 mph 16.0 mph 94% 0.00 in
15:39 45.9 °F 44.0 °F 29.69 in NE 3.0 mph 13.0 mph 93% 0.00 in
15:49 46.2 °F 44.3 °F 29.70 in NE 3.0 mph 15.0 mph 93% 0.00 in
15:59 46.4 °F 44.2 °F 29.70 in NE 6.0 mph 16.0 mph 92% 0.00 in
16:09 46.6 °F 44.1 °F 29.71 in ENE 5.0 mph 9.0 mph 91% 0.00 in
16:19 46.5 °F 44.0 °F 29.71 in NE 6.0 mph 12.0 mph 91% 0.00 in
16:29 46.4 °F 43.9 °F 29.71 in ENE 5.0 mph 12.0 mph 91% 0.00 in
16:39 46.4 °F 43.9 °F 29.72 in NE 3.0 mph 10.0 mph 91% 0.00 in
16:49 46.3 °F 43.5 °F 29.73 in NE 5.0 mph 13.0 mph 90% 0.00 in
16:59 46.1 °F 43.4 °F 29.74 in NE 2.0 mph 10.0 mph 90% 0.00 in
17:09 46.0 °F 43.2 °F 29.75 in NE 3.0 mph 12.0 mph 90% 0.00 in
17:19 45.9 °F 42.5 °F 29.75 in NE 5.0 mph 12.0 mph 88% 0.00 in
17:29 45.9 °F 42.5 °F 29.76 in NE 5.0 mph 10.0 mph 88% 0.00 in
17:39 45.8 °F 42.5 °F 29.76 in NE 3.0 mph 10.0 mph 88% 0.00 in
17:49 45.8 °F 42.2 °F 29.76 in NE 5.0 mph 10.0 mph 87% 0.00 in
17:59 45.8 °F 42.2 °F 29.77 in NE 3.0 mph 10.0 mph 87% 0.00 in
18:09 45.8 °F 41.9 °F 29.77 in NNE 3.0 mph 10.0 mph 86% 0.00 in
18:19 45.9 °F 41.6 °F 29.77 in NE 3.0 mph 13.0 mph 85% 0.00 in
18:29 45.9 °F 41.6 °F 29.77 in NE 5.0 mph 9.0 mph 85% 0.00 in
18:39 45.9 °F 41.6 °F 29.78 in NE 5.0 mph 10.0 mph 85% 0.00 in
18:49 45.9 °F 41.6 °F 29.78 in NE 3.0 mph 7.0 mph 85% 0.00 in
18:59 45.9 °F 41.7 °F 29.78 in NNE 5.0 mph 7.0 mph 85% 0.00 in
19:09 45.9 °F 41.9 °F 29.78 in NNE 3.0 mph 9.0 mph 86% 0.00 in
19:19 45.8 °F 42.2 °F 29.79 in NE 2.0 mph 6.0 mph 87% 0.00 in
19:29 45.8 °F 42.2 °F 29.79 in NNE 3.0 mph 8.0 mph 87% 0.00 in
19:39 45.8 °F 42.2 °F 29.79 in NNE 3.0 mph 7.0 mph 87% 0.00 in
19:49 45.8 °F 42.2 °F 29.80 in NNE 3.0 mph 7.0 mph 87% 0.00 in
19:59 45.7 °F 42.0 °F 29.80 in NNE 5.0 mph 9.0 mph 87% 0.00 in
20:09 45.4 °F 41.5 °F 29.81 in NNE 6.0 mph 12.0 mph 86% 0.00 in
20:19 45.1 °F 41.2 °F 29.81 in NNE 2.0 mph 7.0 mph 86% 0.00 in
20:29 44.7 °F 40.4 °F 29.81 in NNE 3.0 mph 8.0 mph 85% 0.00 in
20:39 44.2 °F 39.7 °F 29.82 in NNE 2.0 mph 6.0 mph 84% 0.00 in
20:49 43.9 °F 39.0 °F 29.82 in North 3.0 mph 3.0 mph 83% 0.00 in
20:59 43.5 °F 38.4 °F 29.83 in NNE 3.0 mph 16.0 mph 82% 0.00 in
21:09 43.3 °F 37.5 °F 29.82 in NNE 5.0 mph 7.0 mph 80% 0.00 in
21:19 43.1 °F 37.3 °F 29.83 in NNE 3.0 mph 7.0 mph 80% 0.00 in
21:29 43.0 °F 37.3 °F 29.83 in NNE 3.0 mph 5.0 mph 80% 0.00 in
21:39 42.8 °F 37.1 °F 29.83 in NNE 3.0 mph 5.0 mph 80% 0.00 in
jolietwx - Weather
Compliments of Weather Underground